Time;durP1;ratioP1;P1;durP2;ratioP2;P2;SDS_P1;SDS_P2;PMS_P1;PMS_P2;Temp;Humidity;BMP_temperature;BMP_pressure;BME280_temperature;BME280_humidity;BME280_pressure;Samples;Min_cycle;Max_cycle;Signal;HPM_P1;HPM_P2
2021/07/20 00:01:47;;;;;;;8.07;6.30;;;;;;;;;;5029152;28;20529;-79
2021/07/20 00:04:14;;;;;;;11.27;6.70;;;;;;;;;;5019221;22;20089;-77
2021/07/20 00:06:40;;;;;;;8.05;6.55;;;;;;;;;;4980439;28;20035;-77
2021/07/20 00:09:06;;;;;;;8.75;6.43;;;;;;;;;;4977504;28;20030;-77
2021/07/20 00:11:34;;;;;;;9.23;6.68;;;;;;;;;;4996192;28;20459;-78
2021/07/20 00:14:01;;;;;;;8.48;6.18;;;;;;;;;;4994909;28;20574;-79
2021/07/20 00:16:28;;;;;;;8.48;6.38;;;;;;;;;;4996153;28;20034;-76
2021/07/20 00:18:54;;;;;;;10.27;6.97;;;;;;;;;;4996459;28;20040;-76
2021/07/20 00:21:20;;;;;;;9.70;6.47;;;;;;;;;;4996629;28;20076;-77
2021/07/20 00:23:47;;;;;;;8.70;6.82;;;;;;;;;;4995650;28;20026;-79
2021/07/20 00:26:13;;;;;;;10.30;7.25;;;;;;;;;;4996502;28;20061;-77
2021/07/20 00:28:39;;;;;;;13.77;8.32;;;;;;;;;;4994648;28;20090;-76
2021/07/20 00:31:05;;;;;;;10.15;7.22;;;;;;;;;;5002356;28;20509;-77
2021/07/20 00:33:31;;;;;;;7.35;6.38;;;;;;;;;;5007884;28;20052;-78
2021/07/20 00:35:57;;;;;;;10.68;6.93;;;;;;;;;;4997914;28;20045;-77
2021/07/20 00:38:25;;;;;;;11.05;7.35;;;;;;;;;;5016253;28;20033;-77
2021/07/20 00:40:51;;;;;;;10.27;7.25;;;;;;;;;;5009406;28;20023;-77
2021/07/20 00:43:18;;;;;;;10.90;8.07;;;;;;;;;;4978064;28;20018;-77
2021/07/20 00:45:44;;;;;;;13.50;7.95;;;;;;;;;;4996112;28;20053;-77
2021/07/20 00:48:10;;;;;;;7.40;6.60;;;;;;;;;;4995201;28;20058;-77
2021/07/20 00:50:41;;;;;;;8.40;6.60;;;;;;;;;;4995627;28;20057;-77
2021/07/20 00:53:08;;;;;;;9.75;7.15;;;;;;;;;;4995741;28;20034;-78
2021/07/20 00:55:36;;;;;;;9.35;7.38;;;;;;;;;;4995470;28;20026;-77
2021/07/20 00:58:03;;;;;;;9.90;8.02;;;;;;;;;;4995096;28;20022;-76
2021/07/20 01:00:30;;;;;;;7.95;6.40;;;;;;;;;;4999778;28;20065;-79
2021/07/20 01:02:56;;;;;;;9.82;7.68;;;;;;;;;;5004320;28;20033;-77
2021/07/20 01:05:22;;;;;;;7.88;6.60;;;;;;;;;;4978437;28;20553;-76
2021/07/20 01:07:49;;;;;;;10.32;8.20;;;;;;;;;;4995642;28;20372;-76
2021/07/20 01:10:16;;;;;;;10.02;7.55;;;;;;;;;;4978438;28;20026;-77
2021/07/20 01:12:43;;;;;;;9.45;7.50;;;;;;;;;;4995236;28;20460;-77
2021/07/20 01:15:10;;;;;;;9.40;7.32;;;;;;;;;;4996525;28;20395;-77
2021/07/20 01:17:37;;;;;;;6.95;6.20;;;;;;;;;;4996088;28;20031;-77
2021/07/20 01:20:06;;;;;;;9.57;6.72;;;;;;;;;;4995365;28;20076;-77
2021/07/20 01:22:34;;;;;;;9.23;6.57;;;;;;;;;;4995373;28;20030;-77
2021/07/20 01:25:11;;;;;;;8.30;6.60;;;;;;;;;;4995643;28;20022;-78
2021/07/20 01:27:44;;;;;;;7.82;5.95;;;;;;;;;;4995992;28;20022;-76
2021/07/20 01:30:10;;;;;;;8.50;6.22;;;;;;;;;;4997006;28;20049;-78
2021/07/20 01:32:36;;;;;;;8.20;6.75;;;;;;;;;;5004309;28;20120;-76
2021/07/20 01:35:03;;;;;;;7.53;6.70;;;;;;;;;;4995364;28;20033;-77
2021/07/20 01:37:30;;;;;;;9.18;6.82;;;;;;;;;;4996550;28;20398;-77
2021/07/20 01:39:57;;;;;;;9.57;7.55;;;;;;;;;;4998332;28;20415;-78
2021/07/20 01:42:23;;;;;;;8.55;6.72;;;;;;;;;;4995247;28;20033;-76
2021/07/20 01:44:49;;;;;;;8.05;7.03;;;;;;;;;;4995587;28;20015;-76
2021/07/20 01:47:16;;;;;;;8.70;7.30;;;;;;;;;;4996843;28;20073;-78
2021/07/20 01:49:43;;;;;;;10.43;7.55;;;;;;;;;;4996701;28;20026;-77
2021/07/20 01:52:10;;;;;;;10.32;7.35;;;;;;;;;;4995598;28;20038;-77
2021/07/20 01:54:36;;;;;;;9.57;6.47;;;;;;;;;;4993520;28;20034;-76
2021/07/20 01:57:02;;;;;;;7.85;6.70;;;;;;;;;;4993404;28;20391;-77
2021/07/20 01:59:28;;;;;;;10.52;7.30;;;;;;;;;;4994958;28;20372;-77
2021/07/20 02:02:54;;;;;;;8.82;7.05;;;;;;;;;;5003643;28;20045;-77
2021/07/20 02:10:08;;;;;;;9.15;7.25;;;;;;;;;;5006522;28;20045;-77
2021/07/20 02:12:38;;;;;;;8.35;7.03;;;;;;;;;;5000804;28;20035;-78
2021/07/20 02:15:05;;;;;;;10.02;7.45;;;;;;;;;;5000292;28;20430;-77
2021/07/20 02:17:31;;;;;;;14.05;8.18;;;;;;;;;;4999920;28;20034;-76
2021/07/20 02:20:09;;;;;;;10.25;7.82;;;;;;;;;;4998465;28;20022;-77
2021/07/20 02:22:36;;;;;;;10.38;8.35;;;;;;;;;;4999032;28;20062;-77
2021/07/20 02:25:03;;;;;;;9.70;7.78;;;;;;;;;;4999289;28;20061;-77
2021/07/20 02:27:30;;;;;;;7.93;7.03;;;;;;;;;;4997728;28;20050;-77
2021/07/20 02:29:58;;;;;;;8.35;7.20;;;;;;;;;;4981003;28;20110;-77
2021/07/20 02:32:26;;;;;;;11.13;8.35;;;;;;;;;;5009648;28;20116;-77
2021/07/20 02:34:53;;;;;;;11.82;8.88;;;;;;;;;;5016803;28;20026;-77
2021/07/20 02:37:21;;;;;;;10.32;8.73;;;;;;;;;;5017856;28;20037;-77
2021/07/20 02:39:47;;;;;;;10.75;8.38;;;;;;;;;;5014794;28;20102;-75
2021/07/20 02:42:13;;;;;;;14.15;9.20;;;;;;;;;;4979004;28;20068;-77
2021/07/20 02:44:40;;;;;;;11.05;9.20;;;;;;;;;;4997367;28;20113;-77
2021/07/20 02:47:06;;;;;;;10.27;8.63;;;;;;;;;;4998111;28;20030;-78
2021/07/20 02:49:32;;;;;;;10.25;8.95;;;;;;;;;;5004268;28;20077;-77
2021/07/20 02:51:59;;;;;;;11.15;8.30;;;;;;;;;;4998168;28;20061;-77
2021/07/20 02:54:26;;;;;;;10.77;8.25;;;;;;;;;;4998840;28;20053;-77
2021/07/20 02:56:53;;;;;;;10.40;7.97;;;;;;;;;;4998913;28;20416;-78
2021/07/20 02:59:21;;;;;;;8.68;7.38;;;;;;;;;;4997855;28;20073;-77
2021/07/20 03:01:48;;;;;;;7.85;7.05;;;;;;;;;;5008410;28;20382;-77
2021/07/20 03:04:15;;;;;;;9.30;7.10;;;;;;;;;;4998418;28;20041;-78
2021/07/20 03:06:43;;;;;;;8.10;6.90;;;;;;;;;;4998256;28;20488;-78
2021/07/20 03:09:12;;;;;;;10.00;7.85;;;;;;;;;;4979903;28;20076;-77
2021/07/20 03:11:39;;;;;;;10.52;7.53;;;;;;;;;;4971687;28;20062;-77
2021/07/20 03:14:08;;;;;;;8.82;7.55;;;;;;;;;;4978358;28;20041;-76
2021/07/20 03:16:36;;;;;;;9.07;7.93;;;;;;;;;;4978466;28;20026;-77
2021/07/20 03:19:02;;;;;;;8.00;7.20;;;;;;;;;;4961005;28;20106;-76
2021/07/20 03:21:30;;;;;;;9.25;7.20;;;;;;;;;;4979940;28;20026;-77
2021/07/20 03:23:57;;;;;;;7.25;6.47;;;;;;;;;;4998160;28;20436;-78
2021/07/20 03:26:23;;;;;;;7.72;6.65;;;;;;;;;;4998300;28;20104;-78
2021/07/20 03:28:50;;;;;;;8.65;7.05;;;;;;;;;;4997680;28;20026;-78
2021/07/20 03:31:17;;;;;;;8.48;6.90;;;;;;;;;;5006231;28;20037;-77
2021/07/20 03:33:43;;;;;;;7.85;6.40;;;;;;;;;;5011833;28;20556;-77
2021/07/20 03:36:09;;;;;;;7.50;6.53;;;;;;;;;;5017625;28;20038;-77
2021/07/20 03:38:36;;;;;;;7.95;6.63;;;;;;;;;;5017384;28;20026;-78
2021/07/20 03:41:02;;;;;;;8.55;7.15;;;;;;;;;;5015980;28;20025;-76
2021/07/20 03:43:29;;;;;;;15.90;9.57;;;;;;;;;;4999671;28;20026;-76
2021/07/20 03:45:56;;;;;;;11.15;8.18;;;;;;;;;;4995648;28;20026;-77
2021/07/20 03:48:22;;;;;;;9.50;8.25;;;;;;;;;;4997110;28;20030;-77
2021/07/20 03:50:50;;;;;;;10.48;8.20;;;;;;;;;;4998103;28;20034;-77
2021/07/20 03:53:16;;;;;;;10.15;7.57;;;;;;;;;;4995880;28;20529;-77
2021/07/20 03:55:45;;;;;;;11.95;8.63;;;;;;;;;;4997035;28;20034;-78
2021/07/20 03:58:13;;;;;;;9.48;7.88;;;;;;;;;;4997199;28;20390;-75
2021/07/20 04:00:39;;;;;;;10.88;7.95;;;;;;;;;;5001204;28;20564;-76
2021/07/20 04:05:51;;;;;;;9.52;7.90;;;;;;;;;;4994952;28;20129;-77
2021/07/20 04:08:19;;;;;;;10.77;8.55;;;;;;;;;;4994627;28;20034;-76
2021/07/20 04:10:49;;;;;;;11.80;9.50;;;;;;;;;;4994593;28;20037;-76
2021/07/20 04:13:15;;;;;;;11.30;8.85;;;;;;;;;;4995500;28;20506;-77
2021/07/20 04:15:45;;;;;;;10.23;8.35;;;;;;;;;;4994617;28;20093;-76
2021/07/20 04:18:11;;;;;;;10.88;8.15;;;;;;;;;;4996431;28;20117;-76
2021/07/20 04:20:37;;;;;;;9.40;7.72;;;;;;;;;;4997227;28;20022;-77
2021/07/20 04:23:04;;;;;;;10.05;8.38;;;;;;;;;;4999684;28;20030;-77
2021/07/20 04:25:31;;;;;;;11.27;8.73;;;;;;;;;;4994882;28;20026;-76
2021/07/20 04:27:57;;;;;;;12.30;8.82;;;;;;;;;;4995342;28;20027;-77
2021/07/20 04:30:23;;;;;;;10.32;8.90;;;;;;;;;;4996442;28;20033;-78
2021/07/20 04:32:49;;;;;;;12.60;8.65;;;;;;;;;;5009720;28;20030;-76
2021/07/20 04:35:17;;;;;;;11.93;8.93;;;;;;;;;;5000342;28;20483;-76
2021/07/20 04:37:43;;;;;;;13.15;8.43;;;;;;;;;;4994586;28;20130;-77
2021/07/20 04:40:13;;;;;;;10.65;8.75;;;;;;;;;;4994895;28;20034;-78
2021/07/20 04:42:41;;;;;;;11.88;9.73;;;;;;;;;;4994301;28;20092;-77
2021/07/20 04:45:08;;;;;;;10.52;8.88;;;;;;;;;;4994918;28;20015;-77
2021/07/20 04:47:35;;;;;;;13.23;9.88;;;;;;;;;;4977625;28;20038;-77
2021/07/20 04:50:02;;;;;;;10.55;8.25;;;;;;;;;;4995188;28;20037;-77
2021/07/20 04:52:28;;;;;;;12.93;9.02;;;;;;;;;;4993687;28;20029;-76
2021/07/20 04:54:54;;;;;;;12.48;9.75;;;;;;;;;;4976623;28;20042;-77
2021/07/20 04:57:20;;;;;;;10.50;8.55;;;;;;;;;;4994761;28;20034;-78
2021/07/20 04:59:46;;;;;;;14.65;8.88;;;;;;;;;;4994501;28;20323;-78
2021/07/20 05:02:14;;;;;;;9.48;7.97;;;;;;;;;;5002661;28;20064;-77
2021/07/20 05:04:42;;;;;;;12.85;8.73;;;;;;;;;;4993037;28;20030;-77
2021/07/20 05:07:10;;;;;;;11.25;8.38;;;;;;;;;;4994109;28;20034;-77
2021/07/20 05:09:36;;;;;;;11.48;9.48;;;;;;;;;;4977818;28;20101;-77
2021/07/20 05:12:03;;;;;;;13.85;10.00;;;;;;;;;;4995218;28;20029;-78
2021/07/20 05:14:29;;;;;;;14.02;9.38;;;;;;;;;;4995857;28;20041;-78
2021/07/20 05:16:55;;;;;;;11.13;9.32;;;;;;;;;;4996839;28;20050;-78
2021/07/20 05:19:21;;;;;;;13.75;9.48;;;;;;;;;;4996049;28;20030;-76
2021/07/20 05:21:48;;;;;;;9.02;7.35;;;;;;;;;;4977031;28;20046;-78
2021/07/20 05:24:15;;;;;;;9.65;8.18;;;;;;;;;;4994229;28;20033;-77
2021/07/20 05:26:45;;;;;;;10.90;7.40;;;;;;;;;;4993424;28;20046;-76
2021/07/20 05:29:14;;;;;;;10.93;8.43;;;;;;;;;;4975686;28;20027;-77
2021/07/20 05:31:40;;;;;;;11.88;8.27;;;;;;;;;;5001698;28;20110;-78
2021/07/20 05:34:06;;;;;;;10.13;8.65;;;;;;;;;;5011848;28;20069;-77
2021/07/20 05:36:32;;;;;;;12.68;7.82;;;;;;;;;;5005101;28;20026;-77
2021/07/20 05:38:58;;;;;;;16.83;8.60;;;;;;;;;;4993251;28;20101;-77
2021/07/20 05:41:25;;;;;;;8.20;7.10;;;;;;;;;;4997248;28;20033;-78
2021/07/20 05:43:51;;;;;;;9.85;7.40;;;;;;;;;;4995654;28;20022;-78
2021/07/20 05:46:17;;;;;;;9.13;6.63;;;;;;;;;;4996659;28;20022;-78
2021/07/20 05:48:43;;;;;;;7.18;6.45;;;;;;;;;;4995233;28;20077;-79
2021/07/20 05:51:11;;;;;;;6.40;5.70;;;;;;;;;;4976832;28;20034;-81
2021/07/20 05:53:38;;;;;;;7.43;5.47;;;;;;;;;;5014763;28;20406;-79
2021/07/20 05:56:04;;;;;;;8.48;5.85;;;;;;;;;;4998934;28;20033;-80
2021/07/20 05:58:30;;;;;;;7.22;6.28;;;;;;;;;;4997052;28;20125;-79
2021/07/20 06:01:01;;;;;;;11.18;6.80;;;;;;;;;;4989746;28;20441;-79
2021/07/20 06:03:27;;;;;;;8.07;6.47;;;;;;;;;;5013436;28;20151;-79
2021/07/20 06:05:54;;;;;;;8.95;7.30;;;;;;;;;;5018938;28;20133;-79
2021/07/20 06:08:22;;;;;;;9.75;6.57;;;;;;;;;;5003522;28;20064;-78
2021/07/20 06:10:50;;;;;;;9.05;6.88;;;;;;;;;;4996870;28;20038;-79
2021/07/20 06:13:17;;;;;;;8.93;7.35;;;;;;;;;;4996079;28;20023;-79
2021/07/20 06:15:46;;;;;;;7.65;6.85;;;;;;;;;;4996681;28;20037;-80
2021/07/20 06:18:12;;;;;;;8.88;7.05;;;;;;;;;;4996572;28;20026;-80
2021/07/20 06:20:39;;;;;;;9.82;7.45;;;;;;;;;;4997747;28;20022;-80
2021/07/20 06:23:05;;;;;;;7.55;6.63;;;;;;;;;;4996561;28;20018;-79
2021/07/20 06:25:32;;;;;;;8.43;7.20;;;;;;;;;;4996000;28;20042;-78
2021/07/20 06:27:59;;;;;;;8.63;7.18;;;;;;;;;;4997845;28;20027;-79
2021/07/20 06:30:25;;;;;;;8.38;6.82;;;;;;;;;;4983342;28;20025;-79
2021/07/20 06:32:51;;;;;;;10.43;7.25;;;;;;;;;;5007977;28;20022;-79
2021/07/20 06:35:18;;;;;;;11.23;7.97;;;;;;;;;;5001396;28;20026;-79
2021/07/20 06:37:47;;;;;;;11.45;8.07;;;;;;;;;;4999207;28;20133;-79
2021/07/20 06:40:14;;;;;;;8.60;6.68;;;;;;;;;;4997304;28;20034;-79
2021/07/20 06:42:41;;;;;;;9.27;6.85;;;;;;;;;;4998037;28;20027;-79
2021/07/20 06:45:08;;;;;;;9.65;7.25;;;;;;;;;;4998557;28;20022;-80
2021/07/20 06:47:39;;;;;;;7.72;6.50;;;;;;;;;;4998591;28;20038;-79
2021/07/20 06:50:06;;;;;;;6.50;5.90;;;;;;;;;;5001018;28;20080;-80
2021/07/20 06:52:32;;;;;;;6.75;6.10;;;;;;;;;;5002621;28;20022;-80
2021/07/20 06:55:00;;;;;;;7.63;5.68;;;;;;;;;;5001754;28;20364;-78
2021/07/20 06:57:26;;;;;;;7.68;6.90;;;;;;;;;;5003073;28;20549;-78
2021/07/20 06:59:54;;;;;;;7.40;6.05;;;;;;;;;;4999096;28;20027;-80
2021/07/20 07:02:21;;;;;;;6.85;6.05;;;;;;;;;;5001592;28;20019;-80
2021/07/20 07:04:55;;;;;;;9.13;7.82;;;;;;;;;;5005100;28;20095;-79
2021/07/20 07:07:21;;;;;;;9.73;7.82;;;;;;;;;;5002264;28;20034;-80
2021/07/20 07:09:49;;;;;;;9.90;7.40;;;;;;;;;;5000991;28;20102;-79
2021/07/20 07:12:15;;;;;;;9.48;7.63;;;;;;;;;;5001631;28;20166;-79
2021/07/20 07:14:41;;;;;;;10.52;7.32;;;;;;;;;;5001243;28;20026;-80
2021/07/20 07:17:07;;;;;;;11.25;8.45;;;;;;;;;;4984096;28;20503;-80
2021/07/20 07:19:33;;;;;;;12.07;7.75;;;;;;;;;;4985971;28;20022;-79
2021/07/20 07:22:00;;;;;;;10.88;8.60;;;;;;;;;;4989019;28;20448;-80
2021/07/20 07:24:26;;;;;;;10.85;8.02;;;;;;;;;;5003958;28;20027;-77
2021/07/20 07:26:53;;;;;;;10.43;8.30;;;;;;;;;;5000132;28;20387;-77
2021/07/20 07:29:20;;;;;;;10.65;7.95;;;;;;;;;;4998339;28;20050;-77
2021/07/20 07:31:47;;;;;;;10.25;8.65;;;;;;;;;;4987495;28;20517;-77
2021/07/20 07:34:13;;;;;;;12.80;8.50;;;;;;;;;;5016207;28;20036;-78
2021/07/20 07:36:42;;;;;;;10.13;7.40;;;;;;;;;;5019095;28;20032;-78
2021/07/20 07:39:08;;;;;;;11.82;7.82;;;;;;;;;;5005765;28;20023;-77
2021/07/20 07:41:39;;;;;;;13.52;8.40;;;;;;;;;;4999115;28;20027;-77
2021/07/20 07:44:09;;;;;;;9.73;8.25;;;;;;;;;;4999526;28;20019;-77
2021/07/20 07:46:37;;;;;;;10.20;6.93;;;;;;;;;;4999163;28;20121;-77
2021/07/20 07:49:04;;;;;;;11.38;7.97;;;;;;;;;;4997891;28;20030;-77
2021/07/20 07:51:30;;;;;;;12.25;8.50;;;;;;;;;;4998890;28;20038;-77
2021/07/20 07:53:58;;;;;;;10.10;7.82;;;;;;;;;;4998834;28;20026;-77
2021/07/20 07:56:28;;;;;;;16.23;8.45;;;;;;;;;;4999004;28;20033;-77
2021/07/20 07:58:55;;;;;;;11.05;8.25;;;;;;;;;;5000522;28;20124;-77
2021/07/20 08:01:22;;;;;;;12.80;8.63;;;;;;;;;;4985027;28;20021;-77
2021/07/20 08:03:49;;;;;;;10.88;8.13;;;;;;;;;;5004357;28;20041;-77
2021/07/20 08:06:20;;;;;;;10.63;8.13;;;;;;;;;;5001927;28;20026;-77
2021/07/20 08:08:47;;;;;;;11.00;7.57;;;;;;;;;;5000516;28;20026;-77
2021/07/20 08:11:14;;;;;;;10.48;7.30;;;;;;;;;;4999695;28;20117;-76
2021/07/20 08:13:41;;;;;;;10.35;7.32;;;;;;;;;;4997758;28;20391;-77
2021/07/20 08:16:07;;;;;;;9.48;7.63;;;;;;;;;;4997310;28;20111;-77
2021/07/20 08:18:34;;;;;;;12.40;7.47;;;;;;;;;;4997439;28;20050;-76
2021/07/20 08:21:05;;;;;;;12.10;8.07;;;;;;;;;;4998852;28;20114;-76
2021/07/20 08:23:32;;;;;;;11.05;7.45;;;;;;;;;;4998571;28;20019;-77
2021/07/20 08:26:00;;;;;;;8.75;7.30;;;;;;;;;;4981342;28;20034;-77
2021/07/20 08:28:42;;;;;;;12.52;8.00;;;;;;;;;;4999574;28;20026;-77
2021/07/20 08:31:09;;;;;;;11.07;8.20;;;;;;;;;;5007317;28;20026;-77
2021/07/20 08:33:37;;;;;;;11.73;8.45;;;;;;;;;;5014822;28;20479;-76
2021/07/20 08:36:04;;;;;;;8.45;7.20;;;;;;;;;;5000914;28;20026;-77
2021/07/20 08:38:31;;;;;;;10.00;7.25;;;;;;;;;;5000494;28;20022;-77
2021/07/20 08:41:09;;;;;;;11.80;8.50;;;;;;;;;;5011774;28;20074;-77
2021/07/20 08:43:51;;;;;;;10.90;8.30;;;;;;;;;;5001330;28;20022;-77
2021/07/20 08:46:25;;;;;;;7.93;6.53;;;;;;;;;;4980236;28;20033;-77
2021/07/20 08:48:58;;;;;;;9.68;7.22;;;;;;;;;;4997858;28;20034;-77
2021/07/20 08:51:35;;;;;;;7.88;6.70;;;;;;;;;;4998097;28;20442;-77
2021/07/20 08:54:09;;;;;;;10.60;7.45;;;;;;;;;;4981046;28;20026;-77
2021/07/20 08:56:40;;;;;;;8.20;6.75;;;;;;;;;;4998285;28;20033;-77
2021/07/20 08:59:08;;;;;;;12.07;6.82;;;;;;;;;;5002815;28;20503;-77
2021/07/20 09:01:43;;;;;;;10.35;7.38;;;;;;;;;;5010846;28;20053;-77
2021/07/20 09:04:15;;;;;;;11.40;7.80;;;;;;;;;;4999252;28;20030;-77
2021/07/20 09:06:43;;;;;;;14.93;8.68;;;;;;;;;;4999138;28;20035;-77
2021/07/20 09:09:18;;;;;;;9.55;7.53;;;;;;;;;;5001946;28;20108;-77
2021/07/20 09:11:46;;;;;;;9.75;7.50;;;;;;;;;;4999088;28;20113;-77
2021/07/20 09:14:24;;;;;;;9.70;7.57;;;;;;;;;;5001399;28;20026;-76
2021/07/20 09:16:51;;;;;;;8.40;7.50;;;;;;;;;;4998737;28;20081;-77
2021/07/20 09:19:27;;;;;;;10.45;7.03;;;;;;;;;;4998522;28;20034;-77
2021/07/20 09:21:53;;;;;;;8.77;6.82;;;;;;;;;;5000642;28;20023;-77
2021/07/20 09:24:42;;;;;;;11.48;8.25;;;;;;;;;;5000013;28;20030;-77
2021/07/20 09:27:21;;;;;;;8.65;7.00;;;;;;;;;;4949509;28;20054;-80
2021/07/20 09:29:48;;;;;;;12.55;8.25;;;;;;;;;;4980703;28;20167;-77
2021/07/20 09:32:14;;;;;;;9.65;7.50;;;;;;;;;;5040695;22;20041;-79
2021/07/20 09:34:50;;;;;;;11.20;7.30;;;;;;;;;;5030374;28;20025;-79
2021/07/20 09:37:21;;;;;;;10.45;7.50;;;;;;;;;;5019215;28;20461;-81
2021/07/20 09:40:11;;;;;;;11.07;9.00;;;;;;;;;;5036299;28;20102;-79
2021/07/20 09:42:55;;;;;;;9.63;7.55;;;;;;;;;;5015376;28;20038;-79
2021/07/20 09:45:25;;;;;;;9.52;7.97;;;;;;;;;;4998320;28;20101;-77
2021/07/20 09:47:58;;;;;;;7.13;6.30;;;;;;;;;;5020164;28;20078;-78
2021/07/20 09:50:25;;;;;;;9.00;7.85;;;;;;;;;;5034768;28;20014;-78
2021/07/20 09:53:09;;;;;;;11.73;8.27;;;;;;;;;;5022170;28;20291;-78
2021/07/20 09:55:47;;;;;;;11.93;8.30;;;;;;;;;;4997600;28;20494;-78
2021/07/20 09:58:25;;;;;;;10.27;8.02;;;;;;;;;;4997453;28;20018;-78
2021/07/20 10:00:55;;;;;;;13.73;8.57;;;;;;;;;;5023292;28;20044;-78
2021/07/20 10:03:26;;;;;;;10.55;8.77;;;;;;;;;;5009181;28;20450;-77
2021/07/20 10:05:56;;;;;;;13.60;9.05;;;;;;;;;;5012955;28;20508;-77
2021/07/20 10:08:48;;;;;;;10.32;7.75;;;;;;;;;;5015025;28;20034;-77
2021/07/20 10:11:14;;;;;;;;;;;;;;;;;;4998556;28;20466;-79
2021/07/20 10:13:48;;;;;;;9.98;8.30;;;;;;;;;;4997085;28;19916;-78
2021/07/20 10:16:19;;;;;;;10.43;8.45;;;;;;;;;;5015151;28;20034;-78
2021/07/20 10:18:45;;;;;;;9.13;8.23;;;;;;;;;;5013952;28;20121;-78
2021/07/20 10:21:13;;;;;;;11.30;8.18;;;;;;;;;;5015264;28;20093;-77
2021/07/20 10:23:56;;;;;;;10.68;8.48;;;;;;;;;;5013514;28;20092;-77
2021/07/20 10:26:31;;;;;;;11.50;9.20;;;;;;;;;;5017286;28;20117;-77
2021/07/20 10:29:16;;;;;;;11.57;8.70;;;;;;;;;;5018559;28;20471;-78
2021/07/20 10:31:46;;;;;;;9.23;8.10;;;;;;;;;;5003816;28;20026;-78
2021/07/20 10:34:14;;;;;;;12.05;9.07;;;;;;;;;;5029296;28;20044;-78
2021/07/20 10:36:50;;;;;;;12.90;9.18;;;;;;;;;;5021124;28;20033;-78
2021/07/20 10:39:21;;;;;;;12.77;8.27;;;;;;;;;;5004277;28;20026;-78
2021/07/20 10:41:47;;;;;;;11.13;9.07;;;;;;;;;;5021932;28;20026;-79
2021/07/20 10:44:20;;;;;;;12.77;9.85;;;;;;;;;;5020157;28;20140;-79
2021/07/20 10:46:49;;;;;;;9.63;8.35;;;;;;;;;;5022378;28;20033;-79
2021/07/20 10:49:25;;;;;;;13.25;9.00;;;;;;;;;;5021773;28;20026;-79
2021/07/20 10:51:56;;;;;;;11.75;9.95;;;;;;;;;;5020947;28;20085;-79
2021/07/20 10:54:26;;;;;;;13.65;10.32;;;;;;;;;;5003753;28;20029;-78
2021/07/20 10:56:58;;;;;;;10.15;8.75;;;;;;;;;;5020785;28;20037;-79
2021/07/20 10:59:43;;;;;;;11.57;10.10;;;;;;;;;;5020500;28;20033;-78
2021/07/20 11:02:24;;;;;;;13.88;10.38;;;;;;;;;;5027664;28;20034;-77
2021/07/20 11:04:53;;;;;;;13.13;9.80;;;;;;;;;;5029290;28;20029;-77
2021/07/20 11:07:30;;;;;;;12.73;10.02;;;;;;;;;;4999243;28;20116;-78
2021/07/20 11:09:59;;;;;;;11.13;9.30;;;;;;;;;;5018541;28;20025;-77
2021/07/20 11:12:27;;;;;;;13.38;10.15;;;;;;;;;;5016080;28;20030;-77
2021/07/20 11:14:56;;;;;;;13.13;10.38;;;;;;;;;;5016561;28;20405;-78
2021/07/20 11:17:23;;;;;;;11.68;10.05;;;;;;;;;;5001462;28;20030;-79
2021/07/20 11:19:51;;;;;;;12.30;8.82;;;;;;;;;;5016451;28;20026;-79
2021/07/20 11:22:18;;;;;;;13.93;10.02;;;;;;;;;;5016229;28;20382;-81
2021/07/20 11:24:45;;;;;;;11.77;10.30;;;;;;;;;;5017484;28;20041;-78
2021/07/20 11:27:13;;;;;;;10.95;9.82;;;;;;;;;;5017535;28;20124;-78
2021/07/20 11:29:39;;;;;;;11.95;10.18;;;;;;;;;;5016369;28;20497;-78
2021/07/20 11:32:06;;;;;;;11.98;10.68;;;;;;;;;;5006456;28;20102;-77
2021/07/20 11:34:36;;;;;;;12.13;10.55;;;;;;;;;;5019734;28;20030;-77
2021/07/20 11:37:07;;;;;;;17.02;11.90;;;;;;;;;;5015178;28;20053;-77
2021/07/20 11:39:38;;;;;;;11.88;10.55;;;;;;;;;;4997360;28;20018;-78
2021/07/20 11:42:30;;;;;;;12.38;11.07;;;;;;;;;;4996225;28;20037;-79
2021/07/20 11:45:01;;;;;;;16.77;11.60;;;;;;;;;;4996496;28;20057;-78
2021/07/20 11:47:27;;;;;;;17.00;11.65;;;;;;;;;;5017408;28;20034;-76
2021/07/20 11:50:11;;;;;;;15.70;11.65;;;;;;;;;;5017421;28;20030;-79
2021/07/20 11:52:53;;;;;;;14.50;11.07;;;;;;;;;;5018277;28;20076;-78
2021/07/20 11:55:19;;;;;;;12.93;11.63;;;;;;;;;;5014581;28;20052;-77
2021/07/20 11:58:04;;;;;;;14.77;12.23;;;;;;;;;;5015714;28;20481;-78
2021/07/20 12:00:48;;;;;;;12.85;11.00;;;;;;;;;;5016665;28;20503;-78
2021/07/20 12:03:34;;;;;;;11.73;10.25;;;;;;;;;;5027153;28;20026;-77
2021/07/20 12:06:03;;;;;;;15.27;12.20;;;;;;;;;;5025018;28;20496;-78
2021/07/20 12:08:52;;;;;;;15.82;11.57;;;;;;;;;;5015798;28;20030;-77
2021/07/20 12:11:30;;;;;;;13.02;11.57;;;;;;;;;;4988510;28;20478;-77
2021/07/20 12:14:04;;;;;;;14.60;12.68;;;;;;;;;;5019883;28;20026;-76
2021/07/20 12:16:30;;;;;;;14.27;12.00;;;;;;;;;;5017609;28;20080;-78
2021/07/20 12:18:58;;;;;;;16.80;12.70;;;;;;;;;;5000973;28;20125;-79
2021/07/20 12:21:25;;;;;;;14.40;11.77;;;;;;;;;;5000847;28;20093;-78
2021/07/20 12:23:54;;;;;;;15.13;12.88;;;;;;;;;;5018022;28;20033;-77
2021/07/20 12:26:21;;;;;;;15.32;11.80;;;;;;;;;;5018148;28;20021;-79
2021/07/20 12:28:49;;;;;;;14.43;11.38;;;;;;;;;;5017601;28;20037;-78
2021/07/20 12:31:15;;;;;;;14.38;12.25;;;;;;;;;;5020958;28;20035;-78
2021/07/20 12:33:43;;;;;;;18.88;12.50;;;;;;;;;;5028821;28;20045;-79
2021/07/20 12:36:10;;;;;;;13.93;12.27;;;;;;;;;;5033351;28;20367;-79
2021/07/20 12:38:36;;;;;;;12.98;11.57;;;;;;;;;;5018099;28;20021;-79
2021/07/20 12:41:06;;;;;;;16.60;13.52;;;;;;;;;;5018905;28;20040;-78
2021/07/20 12:43:32;;;;;;;15.60;13.55;;;;;;;;;;5005629;28;20037;-78
2021/07/20 12:46:08;;;;;;;15.40;12.57;;;;;;;;;;5036198;28;20048;-76
2021/07/20 12:48:34;;;;;;;15.82;13.20;;;;;;;;;;5034014;28;20030;-77
2021/07/20 12:51:10;;;;;;;16.17;13.32;;;;;;;;;;5001459;28;20037;-78
2021/07/20 12:53:40;;;;;;;17.80;13.43;;;;;;;;;;4999887;28;20044;-79
2021/07/20 12:56:06;;;;;;;15.40;13.02;;;;;;;;;;5018051;28;20034;-80
2021/07/20 12:58:32;;;;;;;15.77;13.43;;;;;;;;;;5018747;28;20049;-80
2021/07/20 13:00:59;;;;;;;17.52;13.45;;;;;;;;;;5018091;28;20144;-77
2021/07/20 13:03:26;;;;;;;20.30;14.60;;;;;;;;;;5037093;28;20132;-78
2021/07/20 13:05:53;;;;;;;15.95;13.35;;;;;;;;;;5019356;28;20041;-79
2021/07/20 13:08:19;;;;;;;21.27;14.30;;;;;;;;;;5017827;28;20080;-79
2021/07/20 13:10:55;;;;;;;21.33;14.35;;;;;;;;;;4998774;28;20022;-79
2021/07/20 13:13:23;;;;;;;18.85;13.70;;;;;;;;;;5018178;28;20040;-77
2021/07/20 13:15:51;;;;;;;15.27;13.55;;;;;;;;;;5021087;28;20084;-78
2021/07/20 13:18:24;;;;;;;17.98;14.30;;;;;;;;;;5022724;28;20057;-77
2021/07/20 13:23:48;;;;;;;15.88;13.80;;;;;;;;;;5839951;22;20088;-79
2021/07/20 13:26:46;;;;;;;17.85;13.68;;;;;;;;;;5004849;28;20025;-79
2021/07/20 13:35:29;;;;;;;16.45;13.60;;;;;;;;;;4922778;29;20394;-82
2021/07/20 13:37:56;;;;;;;14.63;12.80;;;;;;;;;;4936662;29;20397;-78
2021/07/20 13:40:22;;;;;;;20.25;14.77;;;;;;;;;;4945151;28;20031;-78
2021/07/20 13:42:50;;;;;;;17.42;13.98;;;;;;;;;;4981597;28;20019;-81
2021/07/20 13:45:22;;;;;;;15.55;13.07;;;;;;;;;;4982939;28;20035;-79
2021/07/20 13:47:52;;;;;;;15.23;12.77;;;;;;;;;;5000309;28;20034;-77
2021/07/20 13:50:22;;;;;;;15.13;13.40;;;;;;;;;;5002035;28;20037;-79
2021/07/20 13:52:49;;;;;;;17.65;13.95;;;;;;;;;;4996854;28;20026;-80
2021/07/20 13:55:15;;;;;;;16.52;13.95;;;;;;;;;;4997993;28;20030;-79
2021/07/20 13:57:42;;;;;;;18.45;14.27;;;;;;;;;;4997379;28;20088;-78
2021/07/20 14:00:09;;;;;;;18.35;14.30;;;;;;;;;;5001226;28;20026;-79
2021/07/20 14:02:37;;;;;;;16.48;14.07;;;;;;;;;;5009568;28;20018;-79
2021/07/20 14:05:03;;;;;;;19.20;14.23;;;;;;;;;;5019566;28;20106;-80
2021/07/20 14:07:29;;;;;;;18.83;15.73;;;;;;;;;;5016477;28;20494;-79
2021/07/20 14:09:55;;;;;;;18.88;14.63;;;;;;;;;;4999566;28;20118;-79
2021/07/20 14:12:22;;;;;;;18.23;14.57;;;;;;;;;;4996764;28;20038;-78
2021/07/20 14:14:52;;;;;;;17.15;13.50;;;;;;;;;;4997770;28;20045;-77
2021/07/20 14:17:19;;;;;;;15.23;13.57;;;;;;;;;;4980904;28;20040;-77
2021/07/20 14:19:45;;;;;;;18.02;14.60;;;;;;;;;;5002338;28;20026;-79
2021/07/20 14:22:15;;;;;;;16.58;13.80;;;;;;;;;;5001720;28;20072;-79
2021/07/20 14:24:43;;;;;;;15.82;13.45;;;;;;;;;;5000818;28;20034;-78
2021/07/20 14:27:11;;;;;;;15.88;13.63;;;;;;;;;;5004492;28;20053;-79
2021/07/20 14:29:41;;;;;;;15.43;13.82;;;;;;;;;;4999831;28;20045;-80
2021/07/20 14:32:12;;;;;;;14.93;13.23;;;;;;;;;;5005350;28;20037;-80
2021/07/20 14:34:49;;;;;;;16.42;13.50;;;;;;;;;;4995457;28;20332;-81
2021/07/20 14:37:30;;;;;;;15.02;13.15;;;;;;;;;;5001366;28;20053;-79
2021/07/20 14:39:57;;;;;;;19.80;14.10;;;;;;;;;;5018898;28;20329;-79
2021/07/20 14:42:24;;;;;;;15.52;13.82;;;;;;;;;;5018556;28;20044;-79
2021/07/20 14:44:50;;;;;;;15.63;13.63;;;;;;;;;;5001070;28;20108;-78
2021/07/20 14:47:32;;;;;;;15.70;13.30;;;;;;;;;;4997448;28;20030;-79
2021/07/20 14:50:01;;;;;;;15.73;13.95;;;;;;;;;;4982835;28;20036;-77
2021/07/20 14:52:46;;;;;;;17.98;14.18;;;;;;;;;;5000010;28;20128;-79
2021/07/20 14:55:12;;;;;;;17.42;14.05;;;;;;;;;;4998227;28;20034;-77
2021/07/20 14:57:43;;;;;;;16.33;13.45;;;;;;;;;;4996324;28;20034;-78
2021/07/20 15:00:09;;;;;;;19.27;15.63;;;;;;;;;;4998049;28;20014;-79